createdAt,value
2023-03-06T00:04:29.713Z,-0.40
2023-03-06T00:09:31.135Z,-0.50
2023-03-06T00:14:32.571Z,-0.50
2023-03-06T00:19:34.018Z,-0.50
2023-03-06T00:24:35.437Z,-0.60
2023-03-06T00:29:36.873Z,-0.60
2023-03-06T00:34:38.332Z,-0.50
2023-03-06T00:39:39.808Z,-0.50
2023-03-06T00:44:41.286Z,-0.60
2023-03-06T00:49:42.736Z,-0.60
2023-03-06T00:54:44.192Z,-0.60
2023-03-06T00:59:45.619Z,-0.60
2023-03-06T01:04:47.069Z,-0.60
2023-03-06T01:09:48.491Z,-0.60
2023-03-06T01:14:49.955Z,-0.60
2023-03-06T01:19:51.420Z,-0.60
2023-03-06T01:24:52.877Z,-0.50
2023-03-06T01:29:54.337Z,-0.50
2023-03-06T01:34:55.799Z,-0.50
2023-03-06T01:39:57.251Z,-0.60
2023-03-06T01:44:58.683Z,-0.50
2023-03-06T01:50:00.098Z,-0.50
2023-03-06T01:55:01.523Z,-0.40
2023-03-06T02:00:02.960Z,-0.40
2023-03-06T02:05:04.423Z,-0.30
2023-03-06T02:10:05.904Z,-0.30
2023-03-06T02:15:07.368Z,-0.20
2023-03-06T02:20:08.802Z,-0.30
2023-03-06T02:25:10.259Z,-0.20
2023-03-06T02:30:11.719Z,-0.20
2023-03-06T02:35:13.136Z,-0.20
2023-03-06T02:40:14.559Z,-0.20
2023-03-06T02:45:15.992Z,-0.30
2023-03-06T02:50:17.417Z,-0.30
2023-03-06T02:55:18.856Z,-0.30
2023-03-06T03:00:20.327Z,-0.20
2023-03-06T03:05:21.751Z,-0.30
2023-03-06T03:10:23.184Z,-0.20
2023-03-06T03:15:24.595Z,-0.20
2023-03-06T03:20:26.013Z,-0.20
2023-03-06T03:25:27.471Z,-0.20
2023-03-06T03:30:28.930Z,-0.20
2023-03-06T03:35:30.426Z,-0.20
2023-03-06T03:40:31.890Z,-0.10
2023-03-06T03:45:33.354Z,-0.10
2023-03-06T03:50:34.790Z,-0.10
2023-03-06T03:55:36.209Z,-0.10
2023-03-06T04:00:37.634Z,-0.10
2023-03-06T04:05:39.100Z,-0.10
2023-03-06T04:10:40.525Z,0.00
2023-03-06T04:15:41.936Z,0.00
2023-03-06T04:20:43.406Z,0.00
2023-03-06T04:25:44.883Z,0.00
2023-03-06T04:30:46.308Z,0.00
2023-03-06T04:35:47.777Z,0.10
2023-03-06T04:40:49.213Z,0.10
2023-03-06T04:45:50.734Z,0.20
2023-03-06T04:50:52.212Z,0.20
2023-03-06T04:55:53.639Z,0.30
2023-03-06T05:00:55.072Z,0.30
2023-03-06T05:05:56.616Z,0.30
2023-03-06T05:10:58.050Z,0.30
2023-03-06T05:15:59.499Z,0.30
2023-03-06T05:21:00.949Z,0.40
2023-03-06T05:26:02.376Z,0.40
2023-03-06T05:31:03.835Z,0.40
2023-03-06T05:36:05.304Z,0.40
2023-03-06T05:41:06.767Z,0.40
2023-03-06T05:46:08.267Z,0.40
2023-03-06T05:51:09.722Z,0.50
2023-03-06T05:56:11.193Z,0.50
2023-03-06T06:01:12.622Z,0.60
2023-03-06T06:06:14.100Z,0.60
2023-03-06T06:11:15.550Z,0.60
2023-03-06T06:16:17.048Z,0.70
2023-03-06T06:21:18.537Z,0.80
2023-03-06T06:26:19.998Z,0.80
2023-03-06T06:31:21.482Z,0.90
2023-03-06T06:36:22.927Z,0.90
2023-03-06T06:41:46.286Z,1.00
2023-03-06T06:52:07.233Z,1.10
2023-03-06T06:57:08.710Z,1.20
2023-03-06T07:02:10.173Z,1.30
2023-03-06T07:07:11.630Z,1.30
2023-03-06T07:12:13.070Z,1.40
2023-03-06T07:17:14.547Z,1.50
2023-03-06T07:22:16.049Z,1.60
2023-03-06T07:27:17.469Z,1.70
2023-03-06T07:32:18.942Z,1.80
2023-03-06T07:37:20.414Z,1.90
2023-03-06T07:42:21.849Z,1.90
2023-03-06T07:47:23.277Z,2.00
2023-03-06T07:52:24.724Z,2.10
2023-03-06T07:57:26.147Z,2.30
2023-03-06T08:02:27.567Z,2.50
2023-03-06T08:07:28.985Z,2.50
2023-03-06T08:12:30.398Z,2.60
2023-03-06T08:17:31.876Z,2.80
2023-03-06T08:22:33.351Z,2.90
2023-03-06T08:27:34.809Z,2.90
2023-03-06T08:32:36.324Z,3.00
2023-03-06T08:37:37.931Z,3.10
2023-03-06T08:42:39.471Z,3.30
2023-03-06T08:47:40.885Z,3.50
2023-03-06T08:52:42.347Z,3.60
2023-03-06T08:57:43.802Z,3.80
2023-03-06T09:02:45.229Z,4.00
2023-03-06T09:07:46.689Z,4.20
2023-03-06T09:12:50.898Z,4.40
2023-03-06T09:17:54.054Z,4.50
2023-03-06T09:22:55.585Z,4.70
2023-03-06T09:28:10.541Z,4.80
2023-03-06T09:33:12.999Z,5.00
2023-03-06T09:38:14.461Z,5.30
2023-03-06T09:43:15.889Z,5.30
2023-03-06T09:48:17.312Z,5.40
2023-03-06T09:53:18.770Z,5.60
2023-03-06T09:58:20.211Z,6.00
2023-03-06T10:03:21.689Z,6.10
2023-03-06T10:08:23.196Z,6.30
2023-03-06T10:13:24.640Z,6.30
2023-03-06T10:18:26.076Z,6.30
2023-03-06T10:23:27.500Z,6.40
2023-03-06T10:28:28.918Z,6.50
2023-03-06T10:33:30.427Z,6.70
2023-03-06T10:38:31.904Z,6.70
2023-03-06T10:43:36.294Z,6.70
2023-03-06T10:48:40.050Z,6.80
2023-03-06T10:53:42.407Z,6.90
2023-03-06T10:58:43.846Z,6.90
2023-03-06T11:03:45.370Z,7.00
2023-03-06T11:08:46.880Z,7.10
2023-03-06T11:13:48.394Z,7.30
2023-03-06T11:18:49.907Z,7.30
2023-03-06T11:23:51.581Z,7.20
2023-03-06T11:28:53.244Z,7.30
2023-03-06T11:33:54.834Z,7.40
2023-03-06T11:38:56.495Z,7.40
2023-03-06T11:43:58.009Z,7.50
2023-03-06T11:48:59.469Z,7.50
2023-03-06T11:54:00.942Z,7.50
2023-03-06T11:59:02.428Z,7.50
2023-03-06T12:04:03.922Z,7.60
2023-03-06T12:09:05.426Z,7.60
2023-03-06T12:14:07.095Z,7.30
2023-03-06T12:19:08.641Z,7.20
2023-03-06T12:24:10.121Z,7.00
2023-03-06T12:29:11.786Z,6.90
2023-03-06T12:34:13.252Z,6.70
2023-03-06T12:39:14.785Z,6.50
2023-03-06T12:44:16.240Z,6.30
2023-03-06T12:49:26.250Z,6.20
2023-03-06T12:54:31.458Z,6.20
2023-03-06T12:59:32.983Z,6.10
2023-03-06T13:04:34.459Z,6.00
2023-03-06T13:09:35.985Z,5.80
2023-03-06T13:14:42.340Z,5.80
2023-03-06T13:19:50.030Z,5.70
2023-03-06T13:24:54.900Z,5.50
2023-03-06T13:29:56.409Z,5.40
2023-03-06T13:34:57.934Z,5.20
2023-03-06T13:39:59.385Z,4.60
2023-03-06T13:45:00.842Z,4.30
2023-03-06T13:50:02.319Z,4.30
2023-03-06T13:55:03.769Z,4.30
2023-03-06T14:00:09.362Z,4.10
2023-03-06T14:05:11.326Z,4.00
2023-03-06T14:10:12.800Z,4.20
2023-03-06T14:15:14.269Z,4.40
2023-03-06T14:20:15.748Z,4.60
2023-03-06T14:25:17.232Z,4.80
2023-03-06T14:30:18.706Z,4.90
2023-03-06T14:35:20.198Z,4.80
2023-03-06T14:40:21.705Z,4.70
2023-03-06T14:45:23.140Z,4.60
2023-03-06T14:50:24.590Z,4.60
2023-03-06T14:55:26.045Z,4.50
2023-03-06T15:00:27.604Z,4.60
2023-03-06T15:05:29.059Z,4.60
2023-03-06T15:10:30.524Z,4.60
2023-03-06T15:15:32.000Z,4.60
2023-03-06T15:20:33.462Z,4.70
2023-03-06T15:25:34.897Z,4.60
2023-03-06T15:30:36.400Z,4.60
2023-03-06T15:35:38.336Z,4.60
2023-03-06T15:40:39.899Z,4.60
2023-03-06T15:45:41.404Z,4.60
2023-03-06T15:50:42.933Z,4.40
2023-03-06T15:55:44.401Z,4.30
2023-03-06T16:00:45.873Z,4.20
2023-03-06T16:05:47.359Z,4.00
2023-03-06T16:10:48.804Z,3.90
2023-03-06T16:15:50.257Z,4.00
2023-03-06T16:20:51.682Z,3.90
2023-03-06T16:25:53.229Z,3.70
2023-03-06T16:30:54.709Z,3.70
2023-03-06T16:35:56.332Z,3.70
2023-03-06T16:40:57.785Z,3.60
2023-03-06T16:45:59.278Z,3.60
2023-03-06T16:51:00.989Z,3.50
2023-03-06T16:56:02.440Z,3.50
2023-03-06T17:01:03.950Z,3.40
2023-03-06T17:06:05.463Z,3.40
2023-03-06T17:11:06.902Z,3.40
2023-03-06T17:16:08.402Z,3.30
2023-03-06T17:21:09.885Z,3.30
2023-03-06T17:26:11.342Z,3.30
2023-03-06T17:31:12.889Z,3.20
2023-03-06T17:36:14.389Z,3.00
2023-03-06T17:41:15.843Z,2.90
2023-03-06T17:46:17.384Z,2.80
2023-03-06T17:51:18.852Z,2.70
2023-03-06T17:56:20.294Z,2.60
2023-03-06T18:01:21.782Z,2.50
2023-03-06T18:06:23.294Z,2.40
2023-03-06T18:11:24.729Z,2.40
2023-03-06T18:16:26.238Z,2.30
2023-03-06T18:21:27.728Z,2.20
2023-03-06T18:26:29.194Z,2.10
2023-03-06T18:31:33.745Z,2.20
2023-03-06T18:36:35.720Z,2.20
2023-03-06T18:41:37.221Z,2.20
2023-03-06T18:46:38.666Z,2.10
2023-03-06T18:51:40.254Z,2.10
2023-03-06T18:56:41.728Z,2.10
2023-03-06T19:01:43.214Z,2.00
2023-03-06T19:06:44.653Z,2.00
2023-03-06T19:11:47.154Z,1.90
2023-03-06T19:16:49.036Z,1.90
2023-03-06T19:21:51.087Z,1.90
2023-03-06T19:26:52.558Z,1.90
2023-03-06T19:31:54.014Z,1.90
2023-03-06T19:36:55.474Z,1.90
2023-03-06T19:41:56.917Z,1.90
2023-03-06T19:46:58.357Z,1.90
2023-03-06T19:51:59.815Z,1.90
2023-03-06T19:57:01.279Z,1.90
2023-03-06T20:02:02.786Z,2.00
2023-03-06T20:07:04.256Z,2.00
2023-03-06T20:12:08.145Z,2.00
2023-03-06T20:17:09.728Z,2.10
2023-03-06T20:22:11.298Z,2.10
2023-03-06T20:27:12.802Z,2.10
2023-03-06T20:32:14.319Z,2.10
2023-03-06T20:37:15.874Z,2.10
2023-03-06T20:42:17.344Z,2.10
2023-03-06T20:47:18.846Z,2.10
2023-03-06T20:52:20.335Z,2.00
2023-03-06T20:57:21.796Z,2.00
2023-03-06T21:02:23.226Z,2.00
2023-03-06T21:07:24.699Z,1.90
2023-03-06T21:12:26.141Z,1.90
2023-03-06T21:17:27.566Z,1.90
2023-03-06T21:22:28.992Z,1.90
2023-03-06T21:27:30.448Z,1.80
2023-03-06T21:32:31.963Z,1.80
2023-03-06T21:37:33.459Z,1.80
2023-03-06T21:42:34.919Z,1.80
2023-03-06T21:47:36.345Z,1.80
2023-03-06T21:52:37.779Z,1.80
2023-03-06T21:57:39.206Z,1.70
2023-03-06T22:02:40.660Z,1.70
2023-03-06T22:07:42.102Z,1.70
2023-03-06T22:12:43.554Z,1.70
2023-03-06T22:17:45.097Z,1.70
2023-03-06T22:22:46.511Z,1.70
2023-03-06T22:27:47.989Z,1.70
2023-03-06T22:32:49.501Z,1.60
2023-03-06T22:37:50.964Z,1.50
2023-03-06T22:42:52.408Z,1.50
2023-03-06T22:48:02.316Z,1.30
2023-03-06T22:53:10.628Z,1.30
2023-03-06T22:58:12.049Z,1.20
2023-03-06T23:03:13.468Z,1.20
2023-03-06T23:08:14.887Z,1.20
2023-03-06T23:13:16.356Z,1.20
2023-03-06T23:18:17.829Z,1.20
2023-03-06T23:23:19.253Z,1.20
2023-03-06T23:28:20.686Z,1.20
2023-03-06T23:33:22.115Z,1.20
2023-03-06T23:38:23.596Z,1.20
2023-03-06T23:43:25.029Z,1.20
2023-03-06T23:48:26.484Z,1.10
2023-03-06T23:53:27.902Z,1.10
2023-03-06T23:58:29.362Z,1.00
